createdAt,value
2018-01-11T00:00:53.671Z,3.50
2018-01-11T00:03:21.313Z,3.40
2018-01-11T00:05:48.904Z,3.40
2018-01-11T00:08:16.528Z,3.30
2018-01-11T00:10:44.108Z,3.20
2018-01-11T00:13:12.460Z,3.20
2018-01-11T00:15:40.040Z,3.20
2018-01-11T00:18:07.640Z,3.10
2018-01-11T00:20:35.259Z,3.10
2018-01-11T00:23:03.635Z,3.10
2018-01-11T00:25:31.253Z,3.00
2018-01-11T00:27:58.849Z,3.10
2018-01-11T00:30:26.441Z,3.00
2018-01-11T00:32:54.047Z,3.10
2018-01-11T00:35:21.629Z,3.10
2018-01-11T00:37:49.236Z,3.10
2018-01-11T00:40:28.192Z,3.20
2018-01-11T00:42:55.821Z,3.20
2018-01-11T00:45:23.404Z,3.20
2018-01-11T00:47:50.994Z,3.30
2018-01-11T00:50:18.592Z,3.30
2018-01-11T00:52:46.941Z,3.30
2018-01-11T00:55:14.531Z,3.20
2018-01-11T00:57:42.894Z,3.20
2018-01-11T01:00:10.513Z,3.20
2018-01-11T01:02:38.092Z,3.10
2018-01-11T01:05:05.694Z,3.10
2018-01-11T01:07:33.308Z,3.10
2018-01-11T01:10:00.908Z,3.10
2018-01-11T01:12:29.276Z,3.10
2018-01-11T01:14:56.864Z,3.10
2018-01-11T01:17:24.480Z,3.10
2018-01-11T01:19:52.068Z,3.00
2018-01-11T01:22:20.412Z,3.00
2018-01-11T01:24:47.984Z,3.00
2018-01-11T01:27:15.595Z,2.90
2018-01-11T01:29:43.201Z,2.80
2018-01-11T01:32:10.779Z,2.70
2018-01-11T01:34:38.390Z,2.60
2018-01-11T01:37:05.970Z,2.50
2018-01-11T01:39:33.556Z,2.50
2018-01-11T01:42:01.137Z,2.40
2018-01-11T01:44:29.489Z,2.40
2018-01-11T01:46:57.092Z,2.40
2018-01-11T01:49:25.435Z,2.30
2018-01-11T01:51:53.170Z,2.30
2018-01-11T01:54:20.756Z,2.20
2018-01-11T01:56:48.359Z,2.20
2018-01-11T01:59:15.951Z,2.10
2018-01-11T02:01:43.529Z,2.10
2018-01-11T02:04:11.143Z,2.10
2018-01-11T02:06:38.737Z,2.10
2018-01-11T02:09:06.362Z,2.10
2018-01-11T02:11:33.944Z,2.10
2018-01-11T02:14:01.529Z,2.20
2018-01-11T02:16:29.113Z,2.10
2018-01-11T02:18:56.688Z,2.10
2018-01-11T02:21:25.066Z,2.00
2018-01-11T02:23:53.443Z,2.00
2018-01-11T02:26:21.052Z,1.90
2018-01-11T02:28:48.641Z,1.90
2018-01-11T02:31:16.229Z,1.90
2018-01-11T02:33:44.595Z,1.90
2018-01-11T02:36:12.191Z,1.80
2018-01-11T02:38:39.809Z,1.80
2018-01-11T02:41:07.412Z,1.80
2018-01-11T02:43:35.035Z,1.70
2018-01-11T02:46:02.635Z,1.70
2018-01-11T02:48:30.225Z,1.60
2018-01-11T02:50:57.819Z,1.60
2018-01-11T02:53:25.434Z,1.60
2018-01-11T02:55:53.058Z,1.60
2018-01-11T02:58:21.415Z,1.50
2018-01-11T03:00:49.042Z,1.50
2018-01-11T03:03:16.634Z,1.60
2018-01-11T03:05:44.230Z,1.50
2018-01-11T03:08:12.595Z,1.50
2018-01-11T03:10:40.187Z,1.50
2018-01-11T03:13:07.804Z,1.40
2018-01-11T03:15:35.384Z,1.40
2018-01-11T03:18:03.786Z,1.20
2018-01-11T03:20:31.377Z,1.20
2018-01-11T03:22:58.978Z,1.20
2018-01-11T03:25:26.566Z,1.20
2018-01-11T03:27:54.925Z,1.10
2018-01-11T03:30:23.315Z,1.10
2018-01-11T03:32:51.669Z,1.00
2018-01-11T03:35:19.290Z,1.00
2018-01-11T03:37:46.884Z,1.00
2018-01-11T03:40:14.495Z,1.00
2018-01-11T03:42:42.078Z,1.00
2018-01-11T03:45:09.676Z,1.00
2018-01-11T03:47:37.275Z,0.90
2018-01-11T03:50:04.874Z,1.00
2018-01-11T03:52:32.489Z,0.90
2018-01-11T03:55:00.882Z,0.90
2018-01-11T03:57:28.447Z,0.90
2018-01-11T03:59:56.030Z,0.80
2018-01-11T04:02:23.626Z,0.80
2018-01-11T04:04:51.243Z,0.80
2018-01-11T04:07:18.838Z,0.80
2018-01-11T04:09:46.462Z,0.70
2018-01-11T04:12:14.058Z,0.80
2018-01-11T04:14:41.642Z,0.80
2018-01-11T04:17:09.996Z,0.90
2018-01-11T04:19:37.595Z,0.80
2018-01-11T04:22:05.996Z,0.90
2018-01-11T04:24:33.608Z,0.80
2018-01-11T04:27:02.188Z,0.80
2018-01-11T04:29:29.791Z,0.90
2018-01-11T04:31:57.364Z,0.80
2018-01-11T04:34:24.940Z,0.90
2018-01-11T04:36:52.516Z,0.90
2018-01-11T04:39:20.133Z,0.90
2018-01-11T04:41:47.717Z,0.90
2018-01-11T04:44:15.336Z,0.90
2018-01-11T04:46:43.699Z,0.80
2018-01-11T04:49:11.337Z,0.80
2018-01-11T04:51:38.933Z,0.80
2018-01-11T04:54:06.523Z,0.80
2018-01-11T04:56:34.134Z,0.80
2018-01-11T04:59:01.721Z,0.80
2018-01-11T05:01:30.115Z,0.80
2018-01-11T05:03:57.709Z,0.80
2018-01-11T05:06:25.302Z,0.70
2018-01-11T05:08:52.970Z,0.70
2018-01-11T05:11:20.561Z,0.70
2018-01-11T05:13:48.928Z,0.60
2018-01-11T05:16:17.284Z,0.60
2018-01-11T05:18:44.914Z,0.60
2018-01-11T05:21:12.496Z,0.60
2018-01-11T05:23:40.080Z,0.60
2018-01-11T05:26:07.689Z,0.60
2018-01-11T05:28:35.286Z,0.50
2018-01-11T05:31:02.915Z,0.50
2018-01-11T05:33:30.503Z,0.50
2018-01-11T05:35:58.133Z,0.50
2018-01-11T05:38:25.742Z,0.50
2018-01-11T05:41:00.697Z,0.50
2018-01-11T05:43:29.094Z,0.50
2018-01-11T05:45:56.706Z,0.40
2018-01-11T05:48:24.288Z,0.50
2018-01-11T05:50:52.654Z,0.60
2018-01-11T05:53:20.261Z,0.60
2018-01-11T05:55:47.847Z,0.60
2018-01-11T05:58:15.462Z,0.60
2018-01-11T06:00:43.819Z,0.60
2018-01-11T06:03:11.415Z,0.60
2018-01-11T06:05:39.000Z,0.70
2018-01-11T06:08:06.607Z,0.80
2018-01-11T06:10:34.416Z,0.80
2018-01-11T06:13:02.020Z,0.90
2018-01-11T06:15:29.647Z,0.90
2018-01-11T06:17:57.228Z,0.90
2018-01-11T06:20:30.261Z,1.00
2018-01-11T06:22:58.653Z,1.10
2018-01-11T06:25:26.254Z,1.10
2018-01-11T06:27:54.607Z,1.30
2018-01-11T06:30:22.189Z,1.30
2018-01-11T06:32:49.804Z,1.40
2018-01-11T06:35:18.174Z,1.50
2018-01-11T06:37:46.567Z,1.50
2018-01-11T06:40:14.934Z,1.60
2018-01-11T06:42:43.289Z,1.50
2018-01-11T06:45:10.882Z,1.50
2018-01-11T06:47:39.235Z,1.50
2018-01-11T06:50:06.852Z,1.50
2018-01-11T06:52:34.456Z,1.50
2018-01-11T06:55:02.078Z,1.50
2018-01-11T06:57:29.674Z,1.60
2018-01-11T06:59:57.290Z,1.60
2018-01-11T07:02:24.892Z,1.60
2018-01-11T07:04:52.484Z,1.50
2018-01-11T07:07:20.880Z,1.50
2018-01-11T07:09:48.504Z,1.50
2018-01-11T07:12:16.144Z,1.50
2018-01-11T07:14:43.773Z,1.50
2018-01-11T07:17:11.413Z,1.50
2018-01-11T07:19:39.783Z,1.50
2018-01-11T07:22:08.141Z,1.60
2018-01-11T07:24:36.509Z,1.60
2018-01-11T07:27:04.100Z,1.60
2018-01-11T07:29:31.712Z,1.70
2018-01-11T07:31:59.325Z,1.70
2018-01-11T07:34:27.692Z,1.70
2018-01-11T07:36:55.285Z,1.70
2018-01-11T07:39:22.899Z,1.70
2018-01-11T07:41:50.527Z,1.70
2018-01-11T07:44:18.127Z,1.80
2018-01-11T07:46:45.739Z,1.90
2018-01-11T07:49:13.339Z,2.00
2018-01-11T07:51:40.976Z,2.00
2018-01-11T07:54:08.596Z,2.10
2018-01-11T07:56:36.212Z,2.10
2018-01-11T07:59:03.833Z,2.20
2018-01-11T08:01:32.189Z,2.20
2018-01-11T08:03:59.803Z,2.20
2018-01-11T08:06:27.398Z,2.30
2018-01-11T08:08:55.011Z,2.30
2018-01-11T08:11:22.614Z,2.30
2018-01-11T08:13:50.209Z,2.40
2018-01-11T08:16:18.591Z,2.50
2018-01-11T08:18:46.944Z,2.50
2018-01-11T08:21:14.614Z,2.50
2018-01-11T08:23:42.199Z,2.50
2018-01-11T08:26:10.577Z,2.50
2018-01-11T08:28:38.948Z,2.60
2018-01-11T08:31:21.175Z,2.60
2018-01-11T08:33:48.788Z,2.60
2018-01-11T08:36:16.387Z,2.60
2018-01-11T08:38:44.786Z,2.70
2018-01-11T08:41:12.397Z,2.70
2018-01-11T08:43:39.999Z,2.70
2018-01-11T08:46:07.604Z,2.70
2018-01-11T08:48:35.193Z,2.80
2018-01-11T08:51:02.811Z,2.80
2018-01-11T08:53:30.426Z,2.80
2018-01-11T08:55:58.826Z,2.90
2018-01-11T08:58:26.451Z,2.90
2018-01-11T09:00:54.072Z,3.00
2018-01-11T09:03:21.671Z,3.10
2018-01-11T09:05:49.265Z,3.10
2018-01-11T09:08:16.882Z,3.10
2018-01-11T09:10:44.471Z,3.20
2018-01-11T09:13:12.865Z,3.30
2018-01-11T09:15:41.230Z,3.30
2018-01-11T09:18:09.586Z,3.40
2018-01-11T09:20:37.186Z,3.40
2018-01-11T09:23:04.788Z,3.50
2018-01-11T09:25:32.411Z,3.60
2018-01-11T09:28:00.016Z,3.80
2018-01-11T09:30:27.646Z,3.90
2018-01-11T09:32:55.249Z,4.10
2018-01-11T09:35:22.835Z,4.30
2018-01-11T09:37:51.203Z,4.60
2018-01-11T09:40:18.798Z,4.60
2018-01-11T09:42:46.408Z,4.70
2018-01-11T09:45:14.023Z,4.90
2018-01-11T09:47:41.632Z,5.00
2018-01-11T09:50:09.216Z,5.10
2018-01-11T09:52:36.814Z,5.20
2018-01-11T09:55:04.408Z,5.30
2018-01-11T09:57:31.992Z,5.30
2018-01-11T09:59:59.625Z,5.20
2018-01-11T10:02:27.209Z,5.20
2018-01-11T10:04:54.839Z,5.20
2018-01-11T10:07:22.419Z,5.30
2018-01-11T10:09:50.015Z,5.30
2018-01-11T10:12:22.048Z,5.50
2018-01-11T10:14:49.640Z,5.40
2018-01-11T10:17:18.009Z,5.70
2018-01-11T10:19:46.393Z,5.70
2018-01-11T10:22:14.001Z,5.70
2018-01-11T10:24:41.611Z,5.70
2018-01-11T10:27:09.204Z,5.80
2018-01-11T10:29:36.798Z,5.90
2018-01-11T10:32:04.404Z,6.00
2018-01-11T10:34:32.788Z,6.10
2018-01-11T10:37:00.390Z,6.10
2018-01-11T10:39:28.021Z,6.10
2018-01-11T10:41:57.368Z,6.30
2018-01-11T10:44:24.962Z,6.20
2018-01-11T10:46:52.557Z,6.30
2018-01-11T10:49:20.132Z,6.30
2018-01-11T10:51:47.759Z,6.40
2018-01-11T10:54:16.193Z,6.50
2018-01-11T10:56:43.784Z,6.50
2018-01-11T10:59:11.374Z,6.50
2018-01-11T11:01:44.749Z,6.50
2018-01-11T11:04:13.128Z,6.50
2018-01-11T11:06:41.498Z,6.60
2018-01-11T11:09:09.106Z,6.60
2018-01-11T11:11:36.695Z,6.60
2018-01-11T11:14:04.295Z,6.60
2018-01-11T11:16:32.658Z,6.70
2018-01-11T11:19:00.282Z,6.60
2018-01-11T11:21:27.870Z,6.60
2018-01-11T11:23:55.457Z,6.60
2018-01-11T11:26:23.826Z,6.70
2018-01-11T11:28:51.418Z,6.70
2018-01-11T11:31:19.025Z,6.80
2018-01-11T11:33:46.620Z,6.90
2018-01-11T11:36:15.003Z,7.10
2018-01-11T11:38:43.354Z,7.10
2018-01-11T11:41:10.959Z,7.10
2018-01-11T11:43:38.544Z,7.20
2018-01-11T11:46:06.137Z,7.30
2018-01-11T11:48:33.736Z,7.30
2018-01-11T11:51:09.418Z,7.30
2018-01-11T11:53:37.036Z,7.30
2018-01-11T11:56:05.388Z,7.30
2018-01-11T11:58:33.039Z,7.20
2018-01-11T12:01:00.612Z,7.30
2018-01-11T12:03:28.205Z,7.30
2018-01-11T12:05:56.576Z,7.30
2018-01-11T12:08:24.176Z,7.20
2018-01-11T12:10:51.809Z,7.30
2018-01-11T12:13:20.164Z,7.30
2018-01-11T12:15:47.768Z,7.20
2018-01-11T12:18:15.392Z,7.30
2018-01-11T12:20:43.817Z,7.20
2018-01-11T12:23:11.449Z,7.30
2018-01-11T12:25:39.816Z,7.30
2018-01-11T12:28:08.217Z,7.40
2018-01-11T12:30:36.618Z,7.40
2018-01-11T12:33:04.200Z,7.40
2018-01-11T12:35:31.804Z,7.40
2018-01-11T12:38:00.153Z,7.40
2018-01-11T12:40:27.757Z,7.40
2018-01-11T12:42:55.363Z,7.40
2018-01-11T12:45:22.994Z,7.40
2018-01-11T12:47:50.584Z,7.50
2018-01-11T12:50:18.189Z,7.50
2018-01-11T12:52:46.548Z,7.50
2018-01-11T12:55:14.128Z,7.50
2018-01-11T12:57:42.505Z,7.50
2018-01-11T13:00:10.910Z,7.50
2018-01-11T13:02:38.544Z,7.50
2018-01-11T13:05:06.911Z,7.60
2018-01-11T13:07:34.511Z,7.60
2018-01-11T13:10:02.121Z,7.60
2018-01-11T13:12:29.708Z,7.60
2018-01-11T13:14:58.111Z,7.60
2018-01-11T13:17:25.683Z,7.60
2018-01-11T13:19:53.276Z,7.70
2018-01-11T13:22:20.941Z,7.70
2018-01-11T13:24:48.507Z,7.70
2018-01-11T13:27:16.121Z,7.70
2018-01-11T13:29:43.714Z,7.80
2018-01-11T13:32:11.343Z,7.80
2018-01-11T13:34:38.928Z,7.80
2018-01-11T13:37:06.506Z,7.90
2018-01-11T13:39:34.126Z,7.90
2018-01-11T13:42:01.710Z,7.90
2018-01-11T13:44:29.317Z,7.90
2018-01-11T13:46:56.909Z,8.00
2018-01-11T13:49:24.514Z,8.00
2018-01-11T13:51:52.113Z,8.10
2018-01-11T13:54:20.478Z,8.10
2018-01-11T13:56:48.074Z,8.00
2018-01-11T13:59:15.681Z,8.00
2018-01-11T14:01:43.281Z,8.00
2018-01-11T14:04:11.621Z,8.00
2018-01-11T14:06:39.242Z,8.00
2018-01-11T14:09:06.827Z,8.00
2018-01-11T14:11:34.411Z,7.90
2018-01-11T14:14:02.004Z,7.90
2018-01-11T14:16:30.363Z,7.80
2018-01-11T14:18:58.746Z,7.80
2018-01-11T14:21:27.102Z,7.90
2018-01-11T14:23:54.723Z,7.90
2018-01-11T14:26:22.318Z,7.90
2018-01-11T14:28:49.919Z,7.90
2018-01-11T14:31:20.221Z,7.90
2018-01-11T14:33:47.822Z,7.90
2018-01-11T14:36:15.432Z,7.90
2018-01-11T14:38:43.079Z,8.00
2018-01-11T14:41:10.732Z,8.00
2018-01-11T14:43:38.326Z,8.00
2018-01-11T14:46:05.901Z,8.00
2018-01-11T14:48:34.313Z,7.90
2018-01-11T14:51:01.918Z,7.90
2018-01-11T14:53:29.507Z,7.80
2018-01-11T14:55:57.858Z,7.80
2018-01-11T14:58:29.344Z,7.80
2018-01-11T15:00:57.695Z,7.70
2018-01-11T15:03:25.274Z,7.60
2018-01-11T15:05:53.630Z,7.60
2018-01-11T15:08:21.212Z,7.60
2018-01-11T15:10:49.631Z,7.40
2018-01-11T15:13:17.205Z,7.40
2018-01-11T15:15:44.819Z,7.30
2018-01-11T15:18:13.160Z,7.20
2018-01-11T15:20:40.743Z,7.20
2018-01-11T15:23:08.333Z,7.10
2018-01-11T15:25:35.941Z,7.00
2018-01-11T15:28:03.541Z,6.90
2018-01-11T15:30:31.888Z,6.80
2018-01-11T15:32:59.481Z,6.80
2018-01-11T15:35:27.828Z,6.60
2018-01-11T15:37:55.418Z,6.60
2018-01-11T15:40:23.803Z,6.40
2018-01-11T15:42:52.153Z,6.30
2018-01-11T15:45:27.389Z,6.20
2018-01-11T15:47:54.967Z,6.20
2018-01-11T15:50:22.586Z,6.20
2018-01-11T15:52:50.175Z,6.10
2018-01-11T15:55:17.781Z,6.10
2018-01-11T15:57:46.139Z,5.90
2018-01-11T16:00:14.492Z,5.90
2018-01-11T16:02:42.113Z,5.80
2018-01-11T16:05:09.727Z,5.80
2018-01-11T16:07:37.362Z,5.70
2018-01-11T16:10:04.946Z,5.70
2018-01-11T16:12:34.062Z,5.50
2018-01-11T16:15:02.422Z,5.40
2018-01-11T16:17:30.063Z,5.40
2018-01-11T16:19:57.688Z,5.40
2018-01-11T16:22:25.379Z,5.40
2018-01-11T16:24:53.038Z,5.40
2018-01-11T16:27:20.620Z,5.40
2018-01-11T16:29:48.229Z,5.50
2018-01-11T16:32:16.581Z,5.50
2018-01-11T16:34:49.936Z,5.50
2018-01-11T16:37:17.555Z,5.60
2018-01-11T16:39:45.929Z,5.60
2018-01-11T16:42:14.322Z,5.70
2018-01-11T16:44:41.966Z,5.70
2018-01-11T16:47:09.553Z,5.70
2018-01-11T16:49:37.167Z,5.80
2018-01-11T16:52:04.780Z,5.80
2018-01-11T16:54:36.184Z,5.80
2018-01-11T16:57:03.804Z,5.80
2018-01-11T16:59:31.452Z,5.80
2018-01-11T17:01:59.103Z,5.80
2018-01-11T17:04:27.456Z,5.80
2018-01-11T17:06:55.061Z,5.80
2018-01-11T17:09:22.648Z,5.80
2018-01-11T17:11:50.284Z,5.80
2018-01-11T17:14:17.873Z,5.80
2018-01-11T17:16:47.151Z,5.70
2018-01-11T17:19:14.758Z,5.70
2018-01-11T17:21:42.357Z,5.70
2018-01-11T17:24:09.986Z,5.70
2018-01-11T17:26:37.606Z,5.70
2018-01-11T17:29:05.233Z,5.60
2018-01-11T17:31:34.550Z,5.60
2018-01-11T17:34:02.510Z,5.60
2018-01-11T17:36:31.824Z,5.60
2018-01-11T17:38:59.442Z,5.60
2018-01-11T17:41:27.989Z,5.60
2018-01-11T17:43:55.572Z,5.60
2018-01-11T17:46:23.186Z,5.50
2018-01-11T17:48:50.808Z,5.50
2018-01-11T17:51:21.662Z,5.40
2018-01-11T17:53:50.034Z,5.40
2018-01-11T17:56:17.617Z,5.40
2018-01-11T17:58:45.965Z,5.40
2018-01-11T18:01:13.546Z,5.40
2018-01-11T18:03:41.930Z,5.40
2018-01-11T18:06:10.293Z,5.40
2018-01-11T18:08:37.912Z,5.40
2018-01-11T18:11:05.510Z,5.50
2018-01-11T18:13:33.103Z,5.40
2018-01-11T18:16:01.575Z,5.40
2018-01-11T18:18:29.175Z,5.50
2018-01-11T18:20:57.456Z,5.50
2018-01-11T18:23:25.058Z,5.50
2018-01-11T18:25:52.673Z,5.50
2018-01-11T18:28:20.256Z,5.50
2018-01-11T18:30:49.296Z,5.50
2018-01-11T18:33:17.134Z,5.50
2018-01-11T18:35:44.702Z,5.50
2018-01-11T18:38:12.304Z,5.50
2018-01-11T18:40:39.880Z,5.50
2018-01-11T18:43:07.515Z,5.50
2018-01-11T18:45:35.115Z,5.50
2018-01-11T18:48:02.693Z,5.50
2018-01-11T18:50:30.300Z,5.50
2018-01-11T18:52:58.651Z,5.40
2018-01-11T18:55:26.288Z,5.40
2018-01-11T18:57:53.898Z,5.40
2018-01-11T19:00:21.513Z,5.30
2018-01-11T19:02:49.098Z,5.30
2018-01-11T19:05:16.711Z,5.20
2018-01-11T19:07:44.295Z,5.20
2018-01-11T19:10:11.893Z,5.20
2018-01-11T19:12:39.530Z,5.10
2018-01-11T19:15:07.128Z,5.10
2018-01-11T19:17:35.525Z,5.00
2018-01-11T19:20:03.130Z,5.00
2018-01-11T19:22:30.739Z,5.00
2018-01-11T19:24:59.101Z,5.00
2018-01-11T19:27:26.694Z,4.90
2018-01-11T19:29:54.314Z,4.90
2018-01-11T19:32:21.914Z,5.00
2018-01-11T19:34:50.306Z,5.00
2018-01-11T19:37:17.894Z,5.00
2018-01-11T19:39:45.496Z,5.00
2018-01-11T19:42:13.860Z,5.00
2018-01-11T19:44:41.444Z,5.00
2018-01-11T19:47:09.816Z,5.00
2018-01-11T19:49:38.181Z,5.00
2018-01-11T19:52:05.791Z,4.90
2018-01-11T19:54:33.416Z,4.90
2018-01-11T19:57:01.773Z,4.90
2018-01-11T19:59:29.378Z,4.90
2018-01-11T20:01:56.982Z,4.80
2018-01-11T20:04:24.614Z,4.90
2018-01-11T20:06:52.209Z,4.80
2018-01-11T20:09:19.849Z,4.80
2018-01-11T20:11:47.441Z,4.70
2018-01-11T20:14:15.046Z,4.60
2018-01-11T20:16:42.649Z,4.60
2018-01-11T20:19:10.242Z,4.50
2018-01-11T20:21:37.854Z,4.60
2018-01-11T20:24:05.451Z,4.50
2018-01-11T20:26:33.083Z,4.50
2018-01-11T20:29:00.670Z,4.50
2018-01-11T20:31:28.318Z,4.40
2018-01-11T20:33:55.928Z,4.30
2018-01-11T20:36:24.294Z,4.30
2018-01-11T20:38:52.685Z,4.30
2018-01-11T20:41:21.040Z,4.30
2018-01-11T20:43:48.652Z,4.30
2018-01-11T20:46:16.248Z,4.30
2018-01-11T20:48:43.848Z,4.40
2018-01-11T20:51:12.206Z,4.40
2018-01-11T20:53:39.812Z,4.40
2018-01-11T20:56:15.814Z,4.40
2018-01-11T20:58:43.397Z,4.40
2018-01-11T21:01:11.781Z,4.40
2018-01-11T21:03:40.140Z,4.40
2018-01-11T21:06:07.761Z,4.40
2018-01-11T21:08:35.370Z,4.40
2018-01-11T21:11:05.994Z,4.40
2018-01-11T21:13:33.723Z,4.40
2018-01-11T21:16:01.319Z,4.30
2018-01-11T21:18:28.948Z,4.30
2018-01-11T21:20:56.535Z,4.30
2018-01-11T21:23:31.250Z,4.20
2018-01-11T21:26:06.008Z,4.20
2018-01-11T21:28:52.220Z,4.10
2018-01-11T21:34:31.777Z,4.00
2018-01-11T21:37:00.186Z,4.00
2018-01-11T21:39:27.799Z,4.00
2018-01-11T21:41:55.383Z,3.90
2018-01-11T21:44:23.752Z,3.80
2018-01-11T21:46:51.358Z,3.80
2018-01-11T21:49:18.974Z,3.70
2018-01-11T21:51:46.569Z,3.70
2018-01-11T21:54:14.692Z,3.60
2018-01-11T21:56:42.272Z,3.60
2018-01-11T21:59:09.855Z,3.60
2018-01-11T22:01:37.447Z,3.60
2018-01-11T22:04:05.112Z,3.50
2018-01-11T22:06:32.693Z,3.40
2018-01-11T22:09:00.291Z,3.40
2018-01-11T22:11:28.672Z,3.30
2018-01-11T22:13:57.022Z,3.30
2018-01-11T22:16:24.624Z,3.30
2018-01-11T22:18:52.219Z,3.30
2018-01-11T22:21:19.796Z,3.30
2018-01-11T22:23:47.367Z,3.20
2018-01-11T22:26:14.958Z,3.20
2018-01-11T22:28:43.318Z,3.10
2018-01-11T22:31:10.913Z,3.10
2018-01-11T22:33:38.567Z,3.10
2018-01-11T22:36:06.171Z,3.10
2018-01-11T22:38:33.752Z,3.10
2018-01-11T22:41:01.375Z,3.00
2018-01-11T22:43:28.971Z,3.00
2018-01-11T22:45:56.556Z,2.90
2018-01-11T22:48:24.906Z,2.90
2018-01-11T22:50:52.542Z,2.90
2018-01-11T22:53:20.134Z,2.90
2018-01-11T22:55:47.736Z,2.90
2018-01-11T22:58:15.354Z,2.90
2018-01-11T23:00:42.974Z,2.90
2018-01-11T23:03:10.564Z,3.00
2018-01-11T23:05:38.160Z,3.00
2018-01-11T23:08:06.562Z,3.10
2018-01-11T23:10:34.151Z,3.10
2018-01-11T23:16:12.432Z,3.10
2018-01-11T23:18:40.812Z,3.10
2018-01-11T23:21:09.223Z,3.10
2018-01-11T23:23:36.807Z,3.10
2018-01-11T23:26:05.177Z,3.10
2018-01-11T23:28:32.767Z,3.10
2018-01-11T23:31:00.390Z,3.10
2018-01-11T23:33:28.007Z,3.10
2018-01-11T23:35:55.634Z,3.10
2018-01-11T23:38:23.219Z,3.10
2018-01-11T23:40:50.815Z,3.20
2018-01-11T23:43:19.179Z,3.20
2018-01-11T23:45:47.551Z,3.20
2018-01-11T23:48:15.178Z,3.10
2018-01-11T23:50:46.550Z,3.10
2018-01-11T23:53:14.188Z,3.10
2018-01-11T23:55:41.803Z,3.10
2018-01-11T23:58:10.144Z,3.10
